Time;durP1;ratioP1;P1;durP2;ratioP2;P2;SDS_P1;SDS_P2;PMS_P1;PMS_P2;Temp;Humidity;BMP_temperature;BMP_pressure;BME280_temperature;BME280_humidity;BME280_pressure;Samples;Min_cycle;Max_cycle;Signal;HPM_P1;HPM_P2
2022/01/12 00:01:12;;;;;;;20.35;14.85;;;;;;;3.34;100.00;101193.06;5072622;28;20229;-77
2022/01/12 00:03:39;;;;;;;18.90;13.82;;;;;;;3.38;100.00;101180.63;5075080;28;20291;-78
2022/01/12 00:06:06;;;;;;;18.15;13.88;;;;;;;3.42;100.00;101177.97;5074821;28;20201;-78
2022/01/12 00:08:33;;;;;;;16.52;12.75;;;;;;;3.32;100.00;101179.78;5069825;28;20221;-78
2022/01/12 00:11:00;;;;;;;12.00;10.30;;;;;;;3.29;100.00;101187.75;5074729;28;20189;-78
2022/01/12 00:13:27;;;;;;;14.27;11.80;;;;;;;3.47;100.00;101184.13;5068022;28;20196;-78
2022/01/12 00:15:54;;;;;;;16.33;12.40;;;;;;;3.23;100.00;101181.56;5075162;28;20284;-78
2022/01/12 00:18:22;;;;;;;17.15;12.68;;;;;;;3.00;100.00;101190.47;5074753;28;20557;-77
2022/01/12 00:20:49;;;;;;;13.75;12.30;;;;;;;3.00;100.00;101195.81;5074570;28;20220;-78
2022/01/12 00:23:16;;;;;;;19.15;13.32;;;;;;;2.86;100.00;101200.25;5074944;28;20189;-78
2022/01/12 00:25:58;;;;;;;18.85;12.63;;;;;;;2.93;100.00;101204.69;5074213;28;20277;-78
2022/01/12 00:33:56;;;;;;;19.50;14.55;;;;;;;2.86;100.00;101201.13;5074407;28;20255;-79
2022/01/12 00:36:22;;;;;;;28.25;16.55;;;;;;;2.71;100.00;101211.78;5073982;28;20204;-79
2022/01/12 00:38:49;;;;;;;19.13;14.27;;;;;;;2.82;100.00;101206.47;5074645;28;20605;-78
2022/01/12 00:41:17;;;;;;;16.33;12.70;;;;;;;2.71;100.00;101204.72;5073917;28;20259;-78
2022/01/12 00:43:47;;;;;;;20.48;14.57;;;;;;;2.62;100.00;101215.34;5074175;28;20266;-77
2022/01/12 00:46:13;;;;;;;15.35;12.70;;;;;;;2.72;100.00;101213.56;5074210;28;20627;-78
2022/01/12 00:48:40;;;;;;;20.58;14.57;;;;;;;2.57;100.00;101210.91;5074299;28;20213;-78
2022/01/12 00:51:11;;;;;;;21.20;14.88;;;;;;;2.49;100.00;101219.78;5073438;28;20199;-78
2022/01/12 00:53:38;;;;;;;19.70;13.88;;;;;;;2.55;100.00;101218.88;5074454;28;20212;-78
2022/01/12 00:56:05;;;;;;;18.35;14.57;;;;;;;2.45;100.00;101217.09;5074001;28;20197;-78
2022/01/12 00:58:33;;;;;;;22.30;16.50;;;;;;;2.43;100.00;101214.44;5073988;28;20233;-78
2022/01/12 01:00:59;;;;;;;24.90;14.93;;;;;;;2.51;100.00;101222.44;5072425;28;20190;-78
2022/01/12 01:03:28;;;;;;;22.65;17.13;;;;;;;2.69;100.00;101214.47;5055397;28;20689;-78
2022/01/12 01:05:55;;;;;;;21.75;15.80;;;;;;;2.64;100.00;101207.34;5061894;28;20197;-78
2022/01/12 01:08:23;;;;;;;22.88;15.57;;;;;;;2.54;100.00;101210.91;5073899;28;20674;-79
2022/01/12 01:10:52;;;;;;;21.83;15.98;;;;;;;2.55;100.00;101202.91;5073363;28;20185;-78
2022/01/12 01:13:23;;;;;;;28.05;19.10;;;;;;;2.63;100.00;101192.31;5073381;28;20189;-78
2022/01/12 01:16:03;;;;;;;23.13;16.27;;;;;;;2.58;100.00;101194.97;5073508;28;20190;-79
2022/01/12 01:26:49;;;;;;;19.52;13.65;;;;;;;2.64;100.00;101196.72;5073549;28;20200;-78
2022/01/12 01:29:16;;;;;;;28.48;18.30;;;;;;;2.40;100.00;101200.28;5073096;28;20223;-78
2022/01/12 01:31:44;;;;;;;16.10;11.70;;;;;;;2.15;100.00;101205.56;5071991;28;20254;-77
2022/01/12 01:34:12;;;;;;;16.63;12.48;;;;;;;1.74;100.00;101208.97;5072574;28;20204;-79
2022/01/12 01:36:40;;;;;;;15.32;11.68;;;;;;;1.53;100.00;101219.50;5073556;28;20279;-78
2022/01/12 01:39:10;;;;;;;15.57;10.52;;;;;;;1.45;100.00;101224.78;5074413;28;20243;-78
2022/01/12 01:41:41;;;;;;;16.25;11.65;;;;;;;1.33;100.00;101219.38;5073260;28;20210;-78
2022/01/12 01:55:13;;;;;;;11.85;9.25;;;;;;;1.07;100.00;101222.78;5073080;28;20548;-78
2022/01/12 01:57:41;;;;;;;15.10;10.38;;;;;;;0.99;100.00;101224.47;5072830;28;20259;-78
2022/01/12 02:00:10;;;;;;;13.68;10.48;;;;;;;1.01;100.00;101231.56;5067954;28;20185;-78
2022/01/12 02:02:37;;;;;;;15.50;11.82;;;;;;;0.96;100.00;101228.00;5072569;28;20268;-78
2022/01/12 02:05:05;;;;;;;16.08;11.90;;;;;;;0.87;100.00;101235.91;5073054;28;20249;-78
2022/01/12 02:07:33;;;;;;;12.77;9.57;;;;;;;0.79;100.00;101232.28;5072646;28;20195;-78
2022/01/12 02:10:00;;;;;;;15.05;10.07;;;;;;;0.80;100.00;101232.31;5073563;28;20227;-78
2022/01/12 02:12:29;;;;;;;12.52;9.23;;;;;;;0.74;100.00;101228.72;5073754;28;20625;-78
2022/01/12 02:14:56;;;;;;;11.15;9.05;;;;;;;0.73;100.00;101219.00;5070220;28;20583;-78
2022/01/12 02:17:28;;;;;;;11.35;9.10;;;;;;;0.65;100.00;101216.28;5053267;28;20199;-78
2022/01/12 02:20:13;;;;;;;12.93;9.82;;;;;;;0.62;100.00;101219.78;5066243;28;20191;-78
2022/01/12 02:36:27;;;;;;;14.98;9.98;;;;;;;0.26;100.00;101233.59;5072641;28;20286;-78
2022/01/12 02:41:41;;;;;;;12.85;9.80;;;;;;;0.19;100.00;101242.34;5072024;28;20198;-78
2022/01/12 02:55:16;;;;;;;18.88;12.38;;;;;;;0.13;100.00;101229.91;5059824;28;20203;-78
2022/01/12 02:57:42;;;;;;;15.98;11.00;;;;;;;0.13;100.00;101240.50;5075440;28;20236;-78
2022/01/12 03:00:14;;;;;;;15.43;10.90;;;;;;;0.24;100.00;101239.75;5075837;28;20290;-78
2022/01/12 03:02:43;;;;;;;12.77;9.63;;;;;;;0.12;100.00;101244.03;5068839;28;20240;-78
2022/01/12 03:05:33;;;;;;;16.73;11.55;;;;;;;0.13;100.00;101248.47;5076156;28;20184;-76
2022/01/12 03:08:09;;;;;;;15.25;10.98;;;;;;;0.11;100.00;101251.97;5076403;28;20220;-77
2022/01/12 03:10:37;;;;;;;12.88;10.40;;;;;;;0.08;100.00;101266.06;5076168;28;20194;-78
2022/01/12 03:13:04;;;;;;;16.65;10.50;;;;;;;-0.01;100.00;101274.78;5076376;28;20213;-77
2022/01/12 03:15:38;;;;;;;16.85;11.75;;;;;;;0.25;100.00;101275.97;5076148;28;20248;-76
2022/01/12 03:18:05;;;;;;;22.23;12.68;;;;;;;0.22;100.00;101276.81;5076364;28;20186;-78
2022/01/12 03:20:32;;;;;;;14.35;11.23;;;;;;;0.48;100.00;101271.81;5075433;28;20593;-76
2022/01/12 03:22:59;;;;;;;16.38;11.27;;;;;;;0.64;100.00;101266.66;5075872;28;20200;-77
2022/01/12 03:25:26;;;;;;;16.02;11.95;;;;;;;0.77;100.00;101248.19;5075799;28;20190;-76
2022/01/12 03:27:59;;;;;;;17.42;12.35;;;;;;;0.80;100.00;101245.56;5076080;28;20274;-77
2022/01/12 03:30:25;;;;;;;16.50;12.43;;;;;;;0.82;100.00;101242.94;5075682;28;20556;-77
2022/01/12 03:33:06;;;;;;;15.63;12.68;;;;;;;0.93;100.00;101251.88;5066609;28;20203;-77
2022/01/12 03:35:48;;;;;;;16.45;12.02;;;;;;;0.65;100.00;101261.34;5075812;28;20196;-78
2022/01/12 03:38:21;;;;;;;16.85;11.15;;;;;;;0.62;100.00;101263.97;5067697;28;20207;-77
2022/01/12 03:40:48;;;;;;;15.70;10.77;;;;;;;0.58;100.00;101255.09;5075815;28;20664;-77
2022/01/12 03:43:17;;;;;;;15.93;11.98;;;;;;;0.45;100.00;101258.50;5075659;28;20278;-77
2022/01/12 03:45:46;;;;;;;14.45;10.73;;;;;;;0.35;100.00;101262.81;5075736;28;20200;-77
2022/01/12 03:48:13;;;;;;;16.13;12.25;;;;;;;0.08;100.00;101271.38;5075402;28;20533;-77
2022/01/12 03:50:40;;;;;;;19.45;12.60;;;;;;;0.11;100.00;101292.59;5075351;28;20281;-77
2022/01/12 03:53:07;;;;;;;14.88;11.15;;;;;;;0.12;100.00;101306.75;5075355;28;20278;-77
2022/01/12 03:55:34;;;;;;;20.70;12.93;;;;;;;0.43;100.00;101301.75;5067405;28;20191;-77
2022/01/12 03:58:01;;;;;;;15.02;11.75;;;;;;;0.22;100.00;101315.69;5075099;28;20319;-77
2022/01/12 04:00:29;;;;;;;19.95;12.57;;;;;;;0.10;100.00;101314.66;5073420;28;20209;-77
2022/01/12 04:02:55;;;;;;;18.80;12.48;;;;;;;0.04;100.00;101313.69;5075294;28;20275;-77
2022/01/12 04:05:30;;;;;;;16.58;12.50;;;;;;;0.22;100.00;101308.59;5075074;28;20246;-76
2022/01/12 04:10:41;;;;;;;16.85;11.07;;;;;;;0.49;100.00;101317.75;5071918;28;20688;-77
2022/01/12 04:13:07;;;;;;;18.77;11.98;;;;;;;0.51;100.00;101314.22;5074702;28;20286;-77
2022/01/12 04:15:35;;;;;;;17.45;12.15;;;;;;;0.45;100.00;101313.28;5074932;28;20191;-77
2022/01/12 04:18:02;;;;;;;16.00;12.63;;;;;;;0.38;100.00;101312.31;5074838;28;20200;-77
2022/01/12 04:20:29;;;;;;;18.92;13.15;;;;;;;0.24;100.00;101306.88;5067084;28;20286;-77
2022/01/12 04:25:42;;;;;;;16.70;12.05;;;;;;;0.43;100.00;101307.97;5067196;28;20194;-77
2022/01/12 04:28:09;;;;;;;17.20;13.65;;;;;;;0.33;100.00;101312.28;5074458;28;20279;-77
2022/01/12 04:30:37;;;;;;;17.88;12.02;;;;;;;0.17;100.00;101316.50;5072854;28;20298;-76
2022/01/12 04:33:04;;;;;;;16.40;12.55;;;;;;;0.10;100.00;101329.66;5072248;28;20291;-77
2022/01/12 04:35:33;;;;;;;15.82;11.90;;;;;;;-0.11;100.00;101336.47;5074781;28;20588;-77
2022/01/12 04:38:00;;;;;;;18.42;12.65;;;;;;;-0.01;100.00;101342.78;5074161;28;20191;-78
2022/01/12 04:40:27;;;;;;;19.27;12.00;;;;;;;0.14;100.00;101319.13;5074287;28;20300;-77
2022/01/12 04:42:54;;;;;;;17.23;12.35;;;;;;;0.35;100.00;101330.84;5074340;28;20689;-77
2022/01/12 04:45:36;;;;;;;19.00;12.65;;;;;;;0.25;100.00;101328.94;5066749;28;20199;-77
2022/01/12 04:48:20;;;;;;;18.42;13.32;;;;;;;0.05;100.00;101316.38;5072763;28;20202;-77
2022/01/12 04:50:48;;;;;;;23.15;13.63;;;;;;;0.17;100.00;101320.91;5072556;28;20209;-77
2022/01/12 04:53:17;;;;;;;18.02;12.10;;;;;;;0.13;100.00;101333.22;5072512;28;20205;-77
2022/01/12 04:55:48;;;;;;;14.82;11.80;;;;;;;0.39;100.00;101324.72;5073919;28;20199;-77
2022/01/12 04:58:15;;;;;;;20.42;12.75;;;;;;;0.23;100.00;101315.72;5065908;28;20229;-77
2022/01/12 05:00:44;;;;;;;16.70;12.30;;;;;;;0.12;100.00;101320.88;5074006;28;20193;-77
2022/01/12 05:08:53;;;;;;;17.50;12.55;;;;;;;-0.15;100.00;101317.88;5073888;28;20267;-76
2022/01/12 05:14:04;;;;;;;18.45;13.07;;;;;;;-0.09;100.00;101317.94;5073437;28;20658;-77
2022/01/12 05:16:30;;;;;;;17.00;12.15;;;;;;;-0.04;100.00;101324.19;5073637;28;20244;-77
2022/01/12 05:19:00;;;;;;;18.67;12.75;;;;;;;0.10;100.00;101324.38;5072447;28;20229;-77
2022/01/12 05:21:26;;;;;;;18.83;13.13;;;;;;;0.16;100.00;101324.47;5068609;28;20207;-77
2022/01/12 05:23:54;;;;;;;16.88;12.70;;;;;;;0.09;100.00;101322.56;5071994;28;20284;-77
2022/01/12 05:26:20;;;;;;;20.70;14.25;;;;;;;0.36;100.00;101311.41;5074056;28;20192;-77
2022/01/12 05:28:47;;;;;;;17.45;12.45;;;;;;;0.52;100.00;101321.31;5073896;28;20206;-77
2022/01/12 05:31:14;;;;;;;20.02;14.55;;;;;;;0.04;100.00;101313.69;5073022;28;20290;-77
2022/01/12 05:33:46;;;;;;;18.05;12.50;;;;;;;0.09;100.00;101318.19;5073322;28;20213;-76
2022/01/12 05:36:16;;;;;;;18.20;12.38;;;;;;;0.02;100.00;101315.44;5073732;28;20198;-77
2022/01/12 05:38:43;;;;;;;16.35;12.82;;;;;;;-0.21;100.00;101321.31;5073705;28;20243;-77
2022/01/12 05:41:10;;;;;;;17.85;12.65;;;;;;;-0.30;100.00;101316.78;5073140;28;20273;-77
2022/01/12 05:43:38;;;;;;;22.33;12.57;;;;;;;-0.22;100.00;101306.31;5073049;28;20221;-77
2022/01/12 05:46:10;;;;;;;19.88;12.85;;;;;;;-0.11;100.00;101310.00;5065792;28;20196;-78
2022/01/12 05:51:23;;;;;;;22.20;14.27;;;;;;;-0.01;100.00;101305.69;5073394;28;20655;-78
2022/01/12 05:53:49;;;;;;;17.33;12.50;;;;;;;-0.17;100.00;101309.03;5072476;28;20233;-78
2022/01/12 05:56:16;;;;;;;20.98;14.55;;;;;;;-0.31;100.00;101314.13;5073003;28;20233;-78
2022/01/12 05:58:43;;;;;;;20.88;14.32;;;;;;;-0.33;100.00;101316.75;5072980;28;20189;-77
2022/01/12 06:01:10;;;;;;;21.17;13.82;;;;;;;-0.22;100.00;101319.56;5072448;28;20286;-77
2022/01/12 06:03:36;;;;;;;18.10;13.60;;;;;;;-0.01;100.00;101318.94;5072598;28;20229;-77
2022/01/12 06:06:03;;;;;;;21.92;13.48;;;;;;;-0.13;100.00;101319.69;5073013;28;20215;-77
2022/01/12 06:08:31;;;;;;;17.65;13.23;;;;;;;0.08;100.00;101323.47;5072556;28;20230;-78
2022/01/12 06:10:58;;;;;;;21.80;14.30;;;;;;;0.13;100.00;101327.94;5072403;28;20220;-78
2022/01/12 06:13:25;;;;;;;20.65;14.10;;;;;;;0.15;100.00;101328.84;5072885;28;20650;-77
2022/01/12 06:15:52;;;;;;;19.05;13.25;;;;;;;0.23;100.00;101318.34;5066497;28;20264;-78
2022/01/12 06:18:18;;;;;;;17.45;12.77;;;;;;;0.31;100.00;101315.78;5072819;28;20193;-78
2022/01/12 06:20:50;;;;;;;17.20;12.43;;;;;;;0.02;100.00;101339.28;5072832;28;20209;-77
2022/01/12 06:23:17;;;;;;;16.85;12.60;;;;;;;-0.26;100.00;101345.09;5069669;28;20292;-78
2022/01/12 06:25:48;;;;;;;18.33;13.55;;;;;;;-0.19;100.00;101326.66;5072857;28;20194;-77
2022/01/12 06:28:24;;;;;;;20.88;14.35;;;;;;;-0.23;100.00;101321.31;5072820;28;20267;-78
2022/01/12 06:33:37;;;;;;;23.02;13.13;;;;;;;-0.26;100.00;101345.09;5076517;28;20670;-78
2022/01/12 06:36:04;;;;;;;18.25;14.65;;;;;;;-0.39;100.00;101332.53;5073031;28;20226;-78
2022/01/12 06:38:33;;;;;;;25.17;14.93;;;;;;;-0.13;100.00;101327.63;5076554;28;20190;-77
2022/01/12 06:41:01;;;;;;;39.80;21.48;;;;;;;0.17;100.00;101335.06;5082054;28;20192;-79
2022/01/12 06:43:28;;;;;;;22.08;15.32;;;;;;;0.24;100.00;101337.78;5079187;28;20314;-78
2022/01/12 06:45:56;;;;;;;22.00;14.88;;;;;;;0.10;100.00;101335.84;5076377;28;20202;-78
2022/01/12 06:48:23;;;;;;;26.55;22.05;;;;;;;0.21;100.00;101343.94;5076581;28;20297;-80
2022/01/12 06:50:50;;;;;;;20.67;14.52;;;;;;;0.06;100.00;101355.22;5075133;28;20214;-78
2022/01/12 06:53:17;;;;;;;23.25;15.07;;;;;;;-0.20;100.00;101352.25;5069760;28;20289;-77
2022/01/12 06:55:44;;;;;;;20.05;14.73;;;;;;;-0.15;100.00;101361.13;5075334;28;20203;-79
2022/01/12 06:58:12;;;;;;;20.08;13.70;;;;;;;-0.03;100.00;101376.28;5074125;28;20230;-78
2022/01/12 07:00:39;;;;;;;20.15;14.30;;;;;;;0.11;100.00;101371.16;5075856;28;20191;-77
2022/01/12 07:03:06;;;;;;;21.83;13.88;;;;;;;0.23;100.00;101367.78;5075937;28;20282;-78
2022/01/12 07:05:33;;;;;;;23.67;15.27;;;;;;;0.39;100.00;101378.59;5075404;28;20212;-77
2022/01/12 07:07:59;;;;;;;23.90;15.40;;;;;;;0.56;100.00;101378.78;5076171;28;20301;-77
2022/01/12 07:10:27;;;;;;;20.58;14.30;;;;;;;0.42;100.00;101388.34;5076764;28;20660;-77
2022/01/12 07:12:53;;;;;;;20.95;14.50;;;;;;;0.39;100.00;101396.28;5072648;28;20557;-78
2022/01/12 07:15:22;;;;;;;17.13;12.93;;;;;;;0.47;100.00;101396.34;5075902;28;20273;-77
2022/01/12 07:17:49;;;;;;;19.10;14.70;;;;;;;0.59;100.00;101400.03;5076284;28;20198;-78
2022/01/12 07:20:16;;;;;;;23.30;17.10;;;;;;;0.47;100.00;101407.84;5075542;28;20529;-78
2022/01/12 07:22:43;;;;;;;19.88;13.75;;;;;;;0.58;100.00;101422.09;5073760;28;20226;-78
2022/01/12 07:25:10;;;;;;;18.25;13.30;;;;;;;0.66;100.00;101422.22;5073400;28;20290;-78
2022/01/12 07:27:37;;;;;;;20.10;14.45;;;;;;;0.75;100.00;101413.47;5074597;28;20195;-79
2022/01/12 07:30:06;;;;;;;20.65;14.30;;;;;;;0.57;100.00;101423.00;5075748;28;20238;-78
2022/01/12 07:32:37;;;;;;;21.77;15.13;;;;;;;0.39;100.00;101431.59;5069497;28;20280;-78
2022/01/12 07:35:04;;;;;;;23.90;14.02;;;;;;;0.42;100.00;101433.41;5074956;28;20281;-78
2022/01/12 07:37:34;;;;;;;22.73;15.65;;;;;;;0.39;100.00;101447.50;5071990;28;20200;-79
2022/01/12 07:40:01;;;;;;;17.80;13.63;;;;;;;0.18;100.00;101464.03;5074679;28;20239;-79
2022/01/12 07:42:30;;;;;;;19.92;14.50;;;;;;;0.16;100.00;101464.88;5075369;28;20192;-77
2022/01/12 07:45:00;;;;;;;17.67;14.88;;;;;;;0.09;100.00;101468.28;5075523;28;20199;-78
2022/01/12 07:47:27;;;;;;;22.60;16.85;;;;;;;0.28;100.00;101467.69;5075884;28;20199;-78
2022/01/12 07:49:56;;;;;;;21.92;16.40;;;;;;;0.26;100.00;101468.53;5075314;28;20294;-77
2022/01/12 07:52:23;;;;;;;22.75;14.40;;;;;;;0.44;100.00;101473.19;5072734;28;20738;-77
2022/01/12 07:54:50;;;;;;;23.48;16.02;;;;;;;0.29;100.00;101489.75;5073456;28;20186;-77
2022/01/12 07:57:17;;;;;;;20.05;14.75;;;;;;;0.44;100.00;101489.09;5074918;28;20254;-77
2022/01/12 07:59:44;;;;;;;18.15;14.18;;;;;;;0.40;100.00;101494.34;5075292;28;20569;-79
2022/01/12 08:02:11;;;;;;;20.55;14.23;;;;;;;0.51;100.00;101497.13;5075279;28;20187;-79
2022/01/12 08:04:38;;;;;;;19.52;13.48;;;;;;;0.45;100.00;101499.69;5075420;28;20206;-78
2022/01/12 08:07:10;;;;;;;18.38;13.77;;;;;;;0.24;100.00;101497.66;5075265;28;20252;-78
2022/01/12 08:09:38;;;;;;;19.17;14.20;;;;;;;0.56;100.00;101495.44;5075165;28;20211;-78
2022/01/12 08:12:05;;;;;;;22.35;14.73;;;;;;;0.89;100.00;101496.75;5074742;28;20724;-76
2022/01/12 08:14:32;;;;;;;22.85;16.10;;;;;;;1.01;100.00;101499.50;5075154;28;20231;-77
2022/01/12 08:16:59;;;;;;;21.00;13.80;;;;;;;0.81;100.00;101493.09;5075545;28;20228;-78
2022/01/12 08:19:27;;;;;;;21.20;14.25;;;;;;;0.72;100.00;101491.22;5074961;28;20282;-76
2022/01/12 08:21:54;;;;;;;21.15;14.25;;;;;;;0.53;100.00;101494.53;5071492;28;20288;-80
2022/01/12 08:24:22;;;;;;;19.00;15.00;;;;;;;0.50;100.00;101503.31;5074404;28;20279;-77
2022/01/12 08:26:49;;;;;;;21.88;16.27;;;;;;;0.48;100.00;101494.47;5075164;28;20620;-77
2022/01/12 08:29:16;;;;;;;17.20;13.68;;;;;;;0.44;100.00;101494.41;5074197;28;20293;-77
2022/01/12 08:31:44;;;;;;;20.63;13.50;;;;;;;0.49;100.00;101487.38;5074755;28;20212;-78
2022/01/12 08:34:11;;;;;;;20.80;14.35;;;;;;;0.53;100.00;101491.88;5074355;28;20287;-77
2022/01/12 08:36:38;;;;;;;19.33;14.98;;;;;;;0.27;100.00;101491.50;5075218;28;20219;-77
2022/01/12 08:39:07;;;;;;;19.33;13.90;;;;;;;0.40;100.00;101480.19;5074647;28;20203;-77
2022/01/12 08:41:37;;;;;;;23.38;14.65;;;;;;;0.50;100.00;101495.38;5074512;28;20192;-76
2022/01/12 08:44:05;;;;;;;20.58;15.25;;;;;;;0.46;100.00;101484.72;5074696;28;20550;-76
2022/01/12 08:46:32;;;;;;;17.33;13.15;;;;;;;0.58;100.00;101477.78;5074674;28;20293;-76
2022/01/12 08:48:59;;;;;;;20.33;15.27;;;;;;;0.71;100.00;101478.84;5067792;28;20688;-77
2022/01/12 08:51:26;;;;;;;21.02;16.08;;;;;;;0.80;100.00;101464.81;5065025;28;20304;-76
2022/01/12 08:53:52;;;;;;;20.77;14.63;;;;;;;0.86;100.00;101456.00;5073182;28;20201;-78
2022/01/12 08:56:20;;;;;;;23.38;16.35;;;;;;;1.23;100.00;101467.91;5073916;28;20235;-76
2022/01/12 08:58:48;;;;;;;22.50;16.00;;;;;;;1.25;100.00;101471.47;5073778;28;20211;-75
2022/01/12 09:01:15;;;;;;;20.23;15.18;;;;;;;1.17;100.00;101473.16;5073862;28;20200;-75
2022/01/12 09:03:42;;;;;;;19.35;14.13;;;;;;;1.36;100.00;101490.16;5074146;28;20603;-77
2022/01/12 09:06:09;;;;;;;18.38;13.70;;;;;;;1.41;100.00;101493.75;5074679;28;20201;-79
2022/01/12 09:08:38;;;;;;;22.25;13.90;;;;;;;1.32;100.00;101501.63;5073138;28;20201;-79
2022/01/12 09:11:06;;;;;;;21.20;15.18;;;;;;;1.48;100.00;101505.31;5083896;28;20704;-79
2022/01/12 09:13:32;;;;;;;18.98;13.70;;;;;;;1.55;100.00;101505.38;5074499;28;20208;-78
2022/01/12 09:16:06;;;;;;;21.92;14.38;;;;;;;1.51;100.00;101505.34;5074497;28;20615;-79
2022/01/12 09:18:35;;;;;;;20.88;14.20;;;;;;;1.57;100.00;101497.44;5074154;28;20629;-77
2022/01/12 09:21:02;;;;;;;19.63;13.82;;;;;;;1.54;100.00;101510.66;5070435;28;20196;-78
2022/01/12 09:23:28;;;;;;;19.13;13.70;;;;;;;1.61;100.00;101512.53;5074170;28;20284;-77
2022/01/12 09:25:55;;;;;;;19.40;14.52;;;;;;;1.60;100.00;101521.34;5073541;28;20200;-79
2022/01/12 09:28:22;;;;;;;18.23;13.55;;;;;;;2.17;100.00;101517.41;5072456;28;20193;-76
2022/01/12 09:30:51;;;;;;;20.95;13.80;;;;;;;2.41;100.00;101513.13;5075927;28;20286;-77
2022/01/12 09:33:19;;;;;;;22.05;13.75;;;;;;;3.12;100.00;101515.22;5074506;28;20190;-77
2022/01/12 09:35:49;;;;;;;16.13;12.88;;;;;;;3.15;100.00;101516.13;5073576;28;20207;-78
2022/01/12 09:38:16;;;;;;;18.85;13.30;;;;;;;3.80;100.00;101517.09;5074502;28;20197;-79
2022/01/12 09:40:42;;;;;;;17.25;14.07;;;;;;;3.72;98.02;101527.75;5073600;28;20254;-78
2022/01/12 09:43:10;;;;;;;18.55;12.88;;;;;;;3.70;95.55;101526.88;5073307;28;20197;-77
2022/01/12 09:45:38;;;;;;;13.60;12.05;;;;;;;3.79;94.82;101523.31;5073411;28;20201;-77
2022/01/12 09:48:09;;;;;;;19.38;12.13;;;;;;;3.52;94.49;101520.63;5073312;28;20189;-77
2022/01/12 09:50:37;;;;;;;12.93;10.57;;;;;;;3.03;96.38;101527.59;5075217;28;20563;-77
2022/01/12 09:53:04;;;;;;;14.48;11.90;;;;;;;2.76;100.00;101542.59;5062499;28;20231;-79
2022/01/12 09:55:31;;;;;;;15.98;11.63;;;;;;;2.73;100.00;101553.19;5073476;28;20239;-78
2022/01/12 09:57:57;;;;;;;17.20;11.85;;;;;;;2.74;100.00;101557.66;5072931;28;20275;-78
2022/01/12 10:00:26;;;;;;;13.93;10.65;;;;;;;2.68;100.00;101565.59;5074418;28;20185;-78
2022/01/12 10:02:53;;;;;;;16.08;11.20;;;;;;;2.98;99.17;101564.84;5068714;28;20213;-78
2022/01/12 10:05:30;;;;;;;15.40;11.40;;;;;;;2.97;100.00;101578.16;5077868;28;20601;-76
2022/01/12 10:08:08;;;;;;;16.40;12.05;;;;;;;2.88;100.00;101573.69;5093673;28;20188;-76
2022/01/12 10:10:35;;;;;;;17.13;12.40;;;;;;;2.90;100.00;101571.91;5074429;28;20603;-77
2022/01/12 10:13:01;;;;;;;20.52;13.52;;;;;;;2.90;100.00;101569.25;5073744;28;20231;-78
2022/01/12 10:15:29;;;;;;;16.65;13.30;;;;;;;3.15;99.79;101564.91;5093104;28;20245;-76
2022/01/12 10:18:01;;;;;;;15.15;10.55;;;;;;;3.30;95.67;101572.06;5092266;28;20283;-77
2022/01/12 10:20:27;;;;;;;15.30;10.93;;;;;;;3.06;94.69;101570.22;5067233;28;20194;-77
2022/01/12 10:23:05;;;;;;;15.13;12.10;;;;;;;3.48;94.85;101571.22;5060697;28;20189;-78
2022/01/12 10:25:32;;;;;;;18.00;11.20;;;;;;;3.46;91.56;101563.25;5073539;28;20659;-76
2022/01/12 10:28:10;;;;;;;17.00;11.35;;;;;;;3.58;90.56;101562.38;5077681;28;20612;-76
2022/01/12 10:30:37;;;;;;;15.48;10.88;;;;;;;3.73;91.24;101548.16;5074171;28;20201;-77
2022/01/12 10:33:06;;;;;;;14.55;10.38;;;;;;;3.70;89.37;101556.19;5072890;28;20550;-77
2022/01/12 10:35:36;;;;;;;12.82;10.40;;;;;;;3.64;88.66;101553.50;5073276;28;20209;-77
2022/01/12 10:38:09;;;;;;;11.27;8.85;;;;;;;3.75;86.91;101544.66;5072444;28;20228;-78
2022/01/12 10:40:47;;;;;;;12.63;11.10;;;;;;;3.57;86.50;101554.38;5072654;28;20202;-79
2022/01/12 10:43:26;;;;;;;60.28;53.67;;;;;;;3.67;86.56;101556.19;5072502;28;20681;-77
2022/01/12 10:45:53;;;;;;;12.85;9.25;;;;;;;3.89;85.11;101557.06;5074677;28;20212;-78
2022/01/12 10:48:20;;;;;;;12.50;8.63;;;;;;;3.94;83.86;101566.88;5079916;28;20247;-78
2022/01/12 10:50:53;;;;;;;11.95;9.88;;;;;;;4.03;83.97;101565.09;5068022;28;20201;-77
2022/01/12 10:53:28;;;;;;;11.45;9.88;;;;;;;4.20;83.17;101549.09;5071201;28;20543;-77
2022/01/12 10:56:07;;;;;;;10.77;8.82;;;;;;;4.31;81.90;101548.16;5073926;28;20611;-79
2022/01/12 10:58:35;;;;;;;11.93;8.95;;;;;;;4.21;82.63;101541.09;5052567;28;20225;-77
2022/01/12 11:01:02;;;;;;;11.18;8.80;;;;;;;4.47;81.18;101542.81;5064979;28;20251;-79
2022/01/12 11:03:30;;;;;;;12.85;9.90;;;;;;;4.59;81.12;101532.13;5072291;28;20657;-78
2022/01/12 11:05:57;;;;;;;12.35;9.15;;;;;;;4.62;80.96;101536.56;5071774;28;20255;-79
2022/01/12 11:08:25;;;;;;;11.20;8.48;;;;;;;4.60;79.40;101534.78;5072032;28;20193;-77
2022/01/12 11:10:54;;;;;;;15.40;10.98;;;;;;;4.69;80.32;101531.19;5071885;28;20625;-79
2022/01/12 11:13:21;;;;;;;13.07;9.20;;;;;;;4.92;78.89;101514.22;5072468;28;20243;-78
2022/01/12 11:15:50;;;;;;;13.98;9.20;;;;;;;5.04;77.48;101514.16;5071161;28;20240;-78
2022/01/12 11:18:20;;;;;;;13.95;8.40;;;;;;;4.97;76.70;101521.28;5074369;28;20292;-79
2022/01/12 11:20:48;;;;;;;10.25;8.65;;;;;;;4.69;78.54;101525.88;5065919;28;20197;-78
2022/01/12 11:23:17;;;;;;;11.82;8.60;;;;;;;4.86;78.07;101528.50;5075876;28;20716;-77
2022/01/12 11:25:57;;;;;;;11.02;8.65;;;;;;;4.96;76.95;101521.31;5076378;28;20224;-79
2022/01/12 11:28:28;;;;;;;14.57;9.60;;;;;;;4.86;77.81;101522.25;5076363;28;20193;-76
2022/01/12 11:31:02;;;;;;;12.25;8.40;;;;;;;4.93;77.69;101523.97;5069700;28;20205;-77
2022/01/12 11:33:40;;;;;;;12.63;9.27;;;;;;;5.22;76.38;101535.44;5076026;28;20193;-78
2022/01/12 11:36:15;;;;;;;14.38;9.25;;;;;;;5.40;75.46;101528.19;5076063;28;20201;-78
2022/01/12 11:38:47;;;;;;;9.90;8.50;;;;;;;5.42;74.53;101529.09;5075830;28;20665;-78
2022/01/12 11:41:22;;;;;;;12.23;9.25;;;;;;;5.31;75.22;101531.81;5075877;28;20185;-78
2022/01/12 11:43:51;;;;;;;12.38;9.27;;;;;;;5.68;74.55;101541.41;5075660;28;20228;-78
2022/01/12 11:46:20;;;;;;;13.07;8.07;;;;;;;5.84;73.32;101541.25;5075360;28;20208;-78
2022/01/12 11:48:49;;;;;;;10.77;7.97;;;;;;;5.72;72.68;101535.13;5075077;28;20200;-78
2022/01/12 11:51:19;;;;;;;15.13;9.35;;;;;;;5.71;72.02;101534.25;5065776;28;20597;-78
2022/01/12 11:53:48;;;;;;;9.52;8.27;;;;;;;5.36;72.97;101534.44;5075293;28;20320;-77
2022/01/12 11:56:18;;;;;;;12.02;8.25;;;;;;;5.48;72.73;101534.41;5074468;28;20243;-77
2022/01/12 11:58:58;;;;;;;10.52;7.35;;;;;;;5.60;72.55;101534.31;5075434;28;20571;-78
2022/01/12 12:01:36;;;;;;;9.38;7.00;;;;;;;5.85;70.88;101520.75;5075118;28;20201;-78
2022/01/12 12:04:05;;;;;;;10.02;7.35;;;;;;;5.84;69.64;101510.97;5075366;28;20204;-78
2022/01/12 12:06:33;;;;;;;13.23;8.82;;;;;;;5.91;71.13;101507.34;5074491;28;20204;-77
2022/01/12 12:09:01;;;;;;;12.27;8.25;;;;;;;5.99;70.91;101505.53;5075011;28;20233;-78
2022/01/12 12:11:31;;;;;;;10.68;7.45;;;;;;;5.96;70.06;101504.66;5075429;28;20265;-78
2022/01/12 12:14:05;;;;;;;12.02;8.27;;;;;;;6.14;70.08;101509.84;5075155;28;20650;-78
2022/01/12 12:16:33;;;;;;;12.32;8.77;;;;;;;6.14;70.49;101495.59;5075076;28;20589;-77
2022/01/12 12:19:02;;;;;;;10.77;7.72;;;;;;;5.79;70.09;101503.00;5073373;28;20541;-78
2022/01/12 12:21:29;;;;;;;15.00;8.82;;;;;;;5.67;71.65;101496.84;5075039;28;20217;-77
2022/01/12 12:23:55;;;;;;;13.25;8.40;;;;;;;5.87;70.81;101492.22;5074876;28;20277;-78
2022/01/12 12:26:25;;;;;;;11.55;8.45;;;;;;;6.04;70.42;101487.66;5074304;28;20210;-77
2022/01/12 12:28:57;;;;;;;10.68;8.32;;;;;;;6.23;69.30;101485.69;5074027;28;20281;-78
2022/01/12 12:31:26;;;;;;;10.15;8.15;;;;;;;6.28;68.98;101474.94;5074604;28;20221;-78